createdAt,value
2023-03-06T06:43:35.524Z,99417.94
2023-03-06T06:47:05.861Z,99417.94
2023-03-06T06:49:27.966Z,99423.88
2023-03-06T06:52:13.584Z,99424.13
2023-03-06T06:54:59.144Z,99407.72
2023-03-06T06:57:44.745Z,99415.06
2023-03-06T07:00:30.193Z,99402.41
2023-03-06T07:03:15.929Z,99411.50
2023-03-06T07:06:02.208Z,99416.34
2023-03-06T07:08:47.824Z,99417.50
2023-03-06T07:11:35.852Z,99432.56
2023-03-06T07:14:21.439Z,99416.66
2023-03-06T07:17:07.000Z,99433.25
2023-03-06T07:19:53.686Z,99438.25
2023-03-06T07:22:50.338Z,99442.22
2023-03-06T07:25:37.329Z,99450.19
2023-03-06T07:28:22.597Z,99425.56
2023-03-06T07:31:10.369Z,99440.06
2023-03-06T07:33:55.813Z,99429.41
2023-03-06T07:36:41.980Z,99425.94
2023-03-06T07:39:28.208Z,99424.56
2023-03-06T07:42:14.999Z,99402.88
2023-03-06T07:45:00.786Z,99419.16
2023-03-06T07:47:45.999Z,99412.31
2023-03-06T07:50:35.063Z,99426.28
2023-03-06T07:53:22.974Z,99400.34
2023-03-06T07:56:09.376Z,99419.22
2023-03-06T07:58:57.032Z,99410.47
2023-03-06T08:01:42.617Z,99416.81
2023-03-06T08:04:29.137Z,99394.78
2023-03-06T08:07:15.242Z,99402.00
2023-03-06T08:10:01.255Z,99405.56
2023-03-06T08:12:47.485Z,99396.81
2023-03-06T08:15:32.763Z,99412.06
2023-03-06T08:18:18.255Z,99400.09
2023-03-06T08:21:09.895Z,99404.50
2023-03-06T08:23:55.039Z,99411.19
2023-03-06T08:26:41.665Z,99416.25
2023-03-06T08:29:27.632Z,99412.72
2023-03-06T08:32:12.916Z,99410.53
2023-03-06T08:35:05.417Z,99411.09
2023-03-06T08:37:51.710Z,99409.62
2023-03-06T08:40:37.150Z,99406.25
2023-03-06T08:43:22.841Z,99404.00
2023-03-06T08:46:09.008Z,99403.38
2023-03-06T08:48:54.426Z,99406.22
2023-03-06T08:51:40.006Z,99405.69
2023-03-06T08:54:26.184Z,99400.72
2023-03-06T08:57:11.913Z,99403.53
2023-03-06T08:59:58.227Z,99413.09
2023-03-06T09:02:43.471Z,99385.25
2023-03-06T09:05:28.905Z,99407.66
2023-03-06T09:08:14.198Z,99404.63
2023-03-06T09:11:01.634Z,99413.00
2023-03-06T09:13:46.964Z,99390.56
2023-03-06T09:16:32.751Z,99399.81
2023-03-06T09:19:19.226Z,99393.16
2023-03-06T09:22:05.370Z,99402.19
2023-03-06T09:24:52.199Z,99387.88
2023-03-06T09:27:37.740Z,99392.69
2023-03-06T09:30:24.393Z,99378.59
2023-03-06T09:33:09.862Z,99379.22
2023-03-06T09:35:56.632Z,99380.62
2023-03-06T09:38:41.916Z,99380.69
2023-03-06T09:41:27.532Z,99371.44
2023-03-06T09:44:15.344Z,99370.44
2023-03-06T09:47:07.246Z,99369.47
2023-03-06T09:50:14.467Z,99365.56
2023-03-06T09:53:03.102Z,99373.59
2023-03-06T09:56:15.479Z,99382.03
2023-03-06T09:59:18.040Z,99368.78
2023-03-06T10:02:15.199Z,99372.81
2023-03-06T10:05:04.273Z,99369.28
2023-03-06T10:08:00.961Z,99364.53
2023-03-06T10:10:56.369Z,99360.75
2023-03-06T10:13:47.465Z,99363.13
2023-03-06T10:16:33.456Z,99360.56
2023-03-06T10:19:21.353Z,99352.66
2023-03-06T10:22:06.247Z,99340.41
2023-03-06T10:25:11.901Z,99345.16
2023-03-06T10:28:13.016Z,99344.03
2023-03-06T10:31:15.884Z,99334.75
2023-03-06T10:34:23.989Z,99331.94
2023-03-06T10:37:21.623Z,99339.03
2023-03-06T10:40:16.960Z,99324.50
2023-03-06T10:43:11.470Z,99330.63
2023-03-06T10:45:57.752Z,99319.09
2023-03-06T10:48:43.002Z,99305.66
2023-03-06T10:51:30.194Z,99309.03
2023-03-06T10:54:15.350Z,99305.88
2023-03-06T10:57:17.812Z,99298.59
2023-03-06T11:00:13.911Z,99296.53
2023-03-06T11:03:16.896Z,99297.31
2023-03-06T11:06:02.638Z,99291.03
2023-03-06T11:08:48.173Z,99288.47
2023-03-06T11:11:37.793Z,99278.16
2023-03-06T11:14:31.290Z,99273.75
2023-03-06T11:17:32.177Z,99285.00
2023-03-06T11:20:18.366Z,99294.44
2023-03-06T11:23:13.109Z,99297.16
2023-03-06T11:26:17.210Z,99291.03
2023-03-06T11:29:07.411Z,99294.38
2023-03-06T11:32:00.466Z,99284.41
2023-03-06T11:35:17.067Z,99286.09
2023-03-06T11:38:07.588Z,99258.56
2023-03-06T11:40:58.094Z,99255.00
2023-03-06T11:43:53.602Z,99202.81
2023-03-06T11:46:43.564Z,99225.13
2023-03-06T11:49:35.329Z,99208.25
2023-03-06T11:52:33.414Z,99213.56
2023-03-06T11:55:35.778Z,99213.56
2023-03-06T11:58:52.368Z,99206.47
2023-03-06T12:01:52.164Z,99213.03
2023-03-06T12:04:45.942Z,99207.78
2023-03-06T12:07:36.307Z,99202.59
2023-03-06T12:10:26.221Z,99183.88
2023-03-06T12:13:44.414Z,99197.41
2023-03-06T12:16:48.076Z,99196.72
2023-03-06T12:19:43.062Z,99178.72
2023-03-06T12:22:57.571Z,99183.91
2023-03-06T12:25:49.243Z,99185.47
2023-03-06T12:28:50.302Z,99188.69
2023-03-06T12:32:21.441Z,99171.25
2023-03-06T12:35:30.469Z,99173.31
2023-03-06T12:38:54.844Z,99175.78
2023-03-06T12:41:50.847Z,99171.59
2023-03-06T12:44:50.762Z,99163.63
2023-03-06T12:47:41.587Z,99171.28
2023-03-06T12:50:32.405Z,99172.59
2023-03-06T12:53:29.302Z,99174.88
2023-03-06T12:56:15.946Z,99179.03
2023-03-06T12:59:02.635Z,99174.34
2023-03-06T13:01:57.714Z,99165.44
2023-03-06T13:05:01.517Z,99173.88
2023-03-06T13:07:52.898Z,99167.53
2023-03-06T13:10:40.521Z,99169.22
